createdAt,value
2022-12-13T00:00:19.376Z,-6.17
2022-12-13T00:03:20.915Z,-6.16
2022-12-13T00:06:22.767Z,-6.17
2022-12-13T00:09:24.387Z,-6.19
2022-12-13T00:12:26.147Z,-6.18
2022-12-13T00:15:27.666Z,-6.19
2022-12-13T00:18:29.600Z,-6.20
2022-12-13T00:21:33.244Z,-6.22
2022-12-13T00:24:35.036Z,-6.24
2022-12-13T00:27:36.603Z,-6.25
2022-12-13T00:30:38.415Z,-6.26
2022-12-13T00:33:40.013Z,-6.25
2022-12-13T00:36:41.569Z,-6.25
2022-12-13T00:39:43.167Z,-6.25
2022-12-13T00:42:44.778Z,-6.25
2022-12-13T00:45:46.342Z,-6.24
2022-12-13T00:48:53.332Z,-6.21
2022-12-13T00:51:54.894Z,-6.20
2022-12-13T00:54:56.436Z,-6.18
2022-12-13T00:57:57.982Z,-6.15
2022-12-13T01:01:07.968Z,-6.15
2022-12-13T01:04:10.889Z,-6.13
2022-12-13T01:07:12.415Z,-6.11
2022-12-13T01:10:14.148Z,-6.09
2022-12-13T01:13:15.835Z,-6.04
2022-12-13T01:16:18.695Z,-6.00
2022-12-13T01:19:20.587Z,-5.94
2022-12-13T01:22:22.434Z,-5.91
2022-12-13T01:25:23.987Z,-5.88
2022-12-13T01:28:25.748Z,-5.87
2022-12-13T01:31:27.410Z,-5.84
2022-12-13T01:34:29.264Z,-5.83
2022-12-13T01:37:30.782Z,-5.83
2022-12-13T01:40:47.964Z,-5.84
2022-12-13T01:43:55.227Z,-5.85
2022-12-13T01:46:56.792Z,-5.89
2022-12-13T01:50:01.839Z,-5.92
2022-12-13T01:53:07.380Z,-5.95
2022-12-13T01:56:34.663Z,-6.01
2022-12-13T01:59:39.696Z,-6.05
2022-12-13T02:02:41.586Z,-6.10
2022-12-13T02:05:51.442Z,-6.14
2022-12-13T02:08:54.451Z,-6.14
2022-12-13T02:11:56.151Z,-6.15
2022-12-13T02:15:08.727Z,-6.16
2022-12-13T02:18:31.441Z,-6.17
2022-12-13T02:21:54.887Z,-6.19
2022-12-13T02:25:34.945Z,-6.24
2022-12-13T02:28:50.035Z,-6.26
2022-12-13T02:32:19.496Z,-6.30
2022-12-13T02:35:26.423Z,-6.33
2022-12-13T02:38:39.161Z,-6.37
2022-12-13T02:41:57.411Z,-6.37
2022-12-13T02:45:20.259Z,-6.37
2022-12-13T02:48:27.358Z,-6.35
2022-12-13T02:51:30.550Z,-6.35
2022-12-13T02:54:32.095Z,-6.34
2022-12-13T02:57:35.836Z,-6.33
2022-12-13T03:00:52.907Z,-6.29
2022-12-13T03:04:15.472Z,-6.24
2022-12-13T03:07:29.466Z,-6.21
2022-12-13T03:10:44.084Z,-6.18
2022-12-13T03:13:58.301Z,-6.14
2022-12-13T03:17:02.592Z,-6.10
2022-12-13T03:20:12.841Z,-6.05
2022-12-13T03:23:25.736Z,-6.00
2022-12-13T03:26:27.664Z,-5.97
2022-12-13T03:29:29.301Z,-5.92
2022-12-13T03:32:30.870Z,-5.88
2022-12-13T03:35:34.930Z,-5.84
2022-12-13T03:38:48.480Z,-5.81
2022-12-13T03:41:50.368Z,-5.78
2022-12-13T03:44:52.186Z,-5.74
2022-12-13T03:47:53.790Z,-5.71
2022-12-13T03:50:55.665Z,-5.71
2022-12-13T03:53:57.187Z,-5.71
2022-12-13T03:56:58.716Z,-5.68
2022-12-13T04:00:00.232Z,-5.64
2022-12-13T04:03:02.303Z,-5.62
2022-12-13T04:06:04.668Z,-5.58
2022-12-13T04:09:06.189Z,-5.56
2022-12-13T04:12:26.673Z,-5.54
2022-12-13T04:15:28.206Z,-5.52
2022-12-13T04:18:30.484Z,-5.50
2022-12-13T04:21:31.987Z,-5.48
2022-12-13T04:24:33.530Z,-5.45
2022-12-13T04:27:35.071Z,-5.42
2022-12-13T04:30:37.056Z,-5.42
2022-12-13T04:33:38.571Z,-5.39
2022-12-13T04:36:40.515Z,-5.38
2022-12-13T04:39:47.833Z,-5.37
2022-12-13T04:42:54.055Z,-5.36
2022-12-13T04:45:56.445Z,-5.35
2022-12-13T04:48:58.032Z,-5.34
2022-12-13T04:52:01.617Z,-5.31
2022-12-13T04:55:04.364Z,-5.28
2022-12-13T04:58:05.900Z,-5.26
2022-12-13T05:01:09.598Z,-5.23
2022-12-13T05:04:11.191Z,-5.20
2022-12-13T05:07:12.725Z,-5.17
2022-12-13T05:10:37.483Z,-5.15
2022-12-13T05:13:35.906Z,-5.13
2022-12-13T05:16:37.517Z,-5.11
2022-12-13T05:19:39.096Z,-5.09
2022-12-13T05:22:40.632Z,-5.06
2022-12-13T05:25:42.158Z,-5.03
2022-12-13T05:28:43.698Z,-5.00
2022-12-13T05:31:45.289Z,-4.99
2022-12-13T05:34:46.846Z,-4.97
2022-12-13T05:37:48.387Z,-4.99
2022-12-13T05:40:56.110Z,-5.01
2022-12-13T05:43:58.283Z,-5.04
2022-12-13T05:47:02.442Z,-4.88
2022-12-13T05:50:04.974Z,-4.80
2022-12-13T05:53:07.479Z,-4.77
2022-12-13T05:56:11.238Z,-4.75
2022-12-13T05:59:12.816Z,-4.76
2022-12-13T06:02:19.738Z,-4.75
2022-12-13T06:05:23.111Z,-4.75
2022-12-13T06:08:25.601Z,-4.74
2022-12-13T06:11:32.111Z,-4.73
2022-12-13T06:14:33.948Z,-4.73
2022-12-13T06:17:37.024Z,-4.69
2022-12-13T06:20:38.907Z,-4.67
2022-12-13T06:23:40.469Z,-4.52
2022-12-13T06:26:42.045Z,-4.21
2022-12-13T06:29:43.568Z,-4.15
2022-12-13T06:32:50.022Z,-4.19
2022-12-13T06:35:52.789Z,-4.23
2022-12-13T06:38:54.400Z,-4.27
2022-12-13T06:41:56.231Z,-4.32
2022-12-13T06:44:57.789Z,-4.35
2022-12-13T06:47:59.493Z,-4.33
2022-12-13T06:51:02.814Z,-4.31
2022-12-13T06:54:04.527Z,-4.30
2022-12-13T06:57:06.109Z,-4.30
2022-12-13T07:00:08.476Z,-4.28
2022-12-13T07:03:12.014Z,-4.30
2022-12-13T07:06:21.432Z,-4.28
2022-12-13T07:09:22.985Z,-4.25
2022-12-13T07:12:24.564Z,-4.22
2022-12-13T07:15:26.569Z,-4.21
2022-12-13T07:18:28.198Z,-4.02
2022-12-13T07:21:30.768Z,-4.01
2022-12-13T07:24:32.347Z,-4.05
2022-12-13T07:27:34.654Z,-4.10
2022-12-13T07:30:40.876Z,-4.16
2022-12-13T07:33:43.299Z,-4.25
2022-12-13T07:36:44.838Z,-4.31
2022-12-13T07:39:46.684Z,-4.42
2022-12-13T07:42:52.330Z,-4.47
2022-12-13T07:45:54.028Z,-4.52
2022-12-13T07:48:55.963Z,-4.54
2022-12-13T07:52:03.378Z,-4.55
2022-12-13T07:55:06.187Z,-4.56
2022-12-13T07:58:10.542Z,-4.61
2022-12-13T08:01:14.595Z,-4.64
2022-12-13T08:04:16.198Z,-4.21
2022-12-13T08:07:18.030Z,-4.07
2022-12-13T08:10:19.687Z,-4.09
2022-12-13T08:13:21.781Z,-4.03
2022-12-13T08:16:28.174Z,-3.56
2022-12-13T08:19:30.854Z,-3.45
2022-12-13T08:22:35.717Z,-3.51
2022-12-13T08:25:38.005Z,-3.58
2022-12-13T08:28:39.581Z,-3.66
2022-12-13T08:31:41.268Z,-3.75
2022-12-13T08:34:44.065Z,-3.82
2022-12-13T08:37:45.571Z,-3.94
2022-12-13T08:40:47.247Z,-4.02
2022-12-13T08:43:53.095Z,-4.09
2022-12-13T08:46:54.718Z,-4.14
2022-12-13T08:50:03.972Z,-4.15
2022-12-13T08:53:06.163Z,-4.16
2022-12-13T08:56:11.679Z,-4.17
2022-12-13T08:59:13.274Z,-4.19
2022-12-13T09:02:17.851Z,-4.23
2022-12-13T09:05:34.332Z,-4.28
2022-12-13T09:08:37.587Z,-4.35
2022-12-13T09:11:40.922Z,-4.38
2022-12-13T09:14:45.198Z,-4.38
2022-12-13T09:17:52.491Z,-4.39
2022-12-13T09:20:54.624Z,-4.38
2022-12-13T09:24:23.607Z,-4.36
2022-12-13T09:27:28.966Z,-4.32
2022-12-13T09:30:31.674Z,-4.29
2022-12-13T09:33:41.556Z,-4.27
2022-12-13T09:36:43.456Z,-4.26
2022-12-13T09:39:45.134Z,-4.27
2022-12-13T09:43:04.559Z,-3.77
2022-12-13T09:46:23.694Z,-2.99
2022-12-13T09:49:35.250Z,-2.88
2022-12-13T09:52:40.271Z,-2.94
2022-12-13T09:55:47.403Z,-3.07
2022-12-13T09:58:50.440Z,-3.23
2022-12-13T10:01:52.110Z,-3.38
2022-12-13T10:05:01.272Z,-2.98
2022-12-13T10:08:22.669Z,-2.15
2022-12-13T10:11:32.063Z,-1.81
2022-12-13T10:14:40.974Z,-1.89
2022-12-13T10:17:51.486Z,-2.11
2022-12-13T10:20:57.723Z,-2.33
2022-12-13T10:24:37.099Z,-2.51
2022-12-13T10:27:45.403Z,-2.70
2022-12-13T10:30:46.948Z,-2.85
2022-12-13T10:33:57.927Z,-3.00
2022-12-13T10:37:00.001Z,-3.14
2022-12-13T10:40:01.692Z,-3.22
2022-12-13T10:43:12.284Z,-3.31
2022-12-13T10:46:25.028Z,-3.37
2022-12-13T10:49:37.448Z,-3.38
2022-12-13T10:52:47.856Z,-3.39
2022-12-13T10:55:55.489Z,-3.36
2022-12-13T10:59:26.526Z,-3.35
2022-12-13T11:02:37.335Z,-3.32
2022-12-13T11:05:40.637Z,-3.32
2022-12-13T11:08:42.228Z,-3.29
2022-12-13T11:11:44.802Z,-3.26
2022-12-13T11:15:04.376Z,-3.23
2022-12-13T11:18:19.118Z,-3.21
2022-12-13T11:21:32.720Z,-3.18
2022-12-13T11:24:37.733Z,-3.18
2022-12-13T11:27:57.775Z,-3.21
2022-12-13T11:31:03.371Z,-3.23
2022-12-13T11:34:23.423Z,-3.19
2022-12-13T11:37:24.967Z,-3.18
2022-12-13T11:40:32.555Z,-3.18
2022-12-13T11:43:44.255Z,-3.22
2022-12-13T11:46:54.346Z,-3.25
2022-12-13T11:49:57.285Z,-3.29
2022-12-13T11:53:19.295Z,-3.30
2022-12-13T11:56:31.724Z,-3.21
2022-12-13T11:59:53.213Z,-3.20
2022-12-13T12:03:09.935Z,-3.18
2022-12-13T12:06:29.522Z,-3.15
2022-12-13T12:09:33.207Z,-3.21
2022-12-13T12:12:41.352Z,-3.21
2022-12-13T12:15:52.331Z,-3.19
2022-12-13T12:19:01.106Z,-3.14
2022-12-13T12:22:28.917Z,-3.07
2022-12-13T12:25:42.425Z,-2.96
2022-12-13T12:28:46.816Z,-2.62
2022-12-13T12:32:06.962Z,-2.37
2022-12-13T12:35:40.407Z,-2.24
2022-12-13T12:39:15.468Z,-2.29
2022-12-13T12:43:14.132Z,-2.38
2022-12-13T12:47:09.118Z,-2.41
2022-12-13T12:50:26.194Z,-2.03
2022-12-13T12:53:47.659Z,-1.87
2022-12-13T12:57:02.083Z,-1.91
2022-12-13T13:00:09.643Z,-2.02
2022-12-13T13:03:24.735Z,-2.10
2022-12-13T13:06:35.227Z,-2.21
2022-12-13T13:09:38.845Z,-2.32
2022-12-13T13:12:43.203Z,-2.44
2022-12-13T13:15:53.992Z,-2.55
2022-12-13T13:18:58.986Z,-2.66
2022-12-13T13:22:02.383Z,-2.75
2022-12-13T13:25:07.036Z,-2.84
2022-12-13T13:28:19.267Z,-2.95
2022-12-13T13:31:20.913Z,-3.04
2022-12-13T13:34:31.850Z,-2.91
2022-12-13T13:37:48.739Z,-2.90
2022-12-13T13:40:50.992Z,-2.93
2022-12-13T13:43:52.558Z,-2.74
2022-12-13T13:47:16.026Z,-2.49
2022-12-13T13:50:44.467Z,-2.50
2022-12-13T13:54:06.467Z,-2.56
2022-12-13T13:57:13.997Z,-2.60
2022-12-13T14:00:43.838Z,-2.65
2022-12-13T14:03:45.489Z,-2.71
2022-12-13T14:07:11.472Z,-2.76
2022-12-13T14:10:48.362Z,-2.83
2022-12-13T14:14:38.789Z,-2.91
2022-12-13T14:17:58.842Z,-2.95
2022-12-13T14:21:22.373Z,-2.98
2022-12-13T14:24:39.920Z,-3.00
2022-12-13T14:27:53.836Z,-3.00
2022-12-13T14:30:57.137Z,-3.02
2022-12-13T14:34:01.696Z,-3.02
2022-12-13T14:37:06.451Z,-3.03
2022-12-13T14:40:32.624Z,-3.07
2022-12-13T14:43:35.626Z,-3.08
2022-12-13T14:46:37.241Z,-3.09
2022-12-13T14:49:48.713Z,-3.08
2022-12-13T14:52:51.034Z,-3.08
2022-12-13T14:56:27.730Z,-3.08
2022-12-13T14:59:30.264Z,-3.09
2022-12-13T15:02:33.681Z,-3.12
2022-12-13T15:05:50.599Z,-3.07
2022-12-13T15:08:52.488Z,-2.90
2022-12-13T15:11:57.468Z,-2.89
2022-12-13T15:15:07.401Z,-2.88
2022-12-13T15:18:36.254Z,-2.92
2022-12-13T15:21:37.855Z,-2.98
2022-12-13T15:24:47.016Z,-3.03
2022-12-13T15:27:52.736Z,-3.06
2022-12-13T15:30:57.080Z,-3.09
2022-12-13T15:34:28.885Z,-3.12
2022-12-13T15:37:33.217Z,-2.63
2022-12-13T15:40:34.985Z,-2.16
2022-12-13T15:43:44.946Z,-2.10
2022-12-13T15:46:52.018Z,-2.16
2022-12-13T15:49:59.407Z,-2.24
2022-12-13T15:53:17.682Z,-2.34
2022-12-13T15:57:00.132Z,-2.45
2022-12-13T16:00:30.753Z,-2.53
2022-12-13T16:03:43.358Z,-2.63
2022-12-13T16:06:52.435Z,-2.61
2022-12-13T16:09:55.373Z,-2.57
2022-12-13T16:13:01.873Z,-2.64
2022-12-13T16:16:30.404Z,-2.73
2022-12-13T16:19:32.745Z,-2.80
2022-12-13T16:22:34.250Z,-2.86
2022-12-13T16:25:35.838Z,-2.92
2022-12-13T16:28:37.364Z,-2.99
2022-12-13T16:31:38.914Z,-3.09
2022-12-13T16:34:40.477Z,-3.17
2022-12-13T16:37:42.060Z,-3.25
2022-12-13T16:40:53.861Z,-3.33
2022-12-13T16:44:01.994Z,-3.39
2022-12-13T16:47:17.309Z,-3.48
2022-12-13T16:50:21.962Z,-3.64
2022-12-13T16:53:24.989Z,-3.70
2022-12-13T16:56:26.832Z,-3.76
2022-12-13T16:59:28.374Z,-3.80
2022-12-13T17:02:29.977Z,-3.83
2022-12-13T17:05:33.771Z,-3.86
2022-12-13T17:08:35.317Z,-3.89
2022-12-13T17:11:37.612Z,-3.92
2022-12-13T17:14:39.201Z,-3.95
2022-12-13T17:17:42.900Z,-3.96
2022-12-13T17:20:44.945Z,-4.02
2022-12-13T17:23:46.460Z,-4.05
2022-12-13T17:26:54.387Z,-4.08
2022-12-13T17:29:57.102Z,-4.11
2022-12-13T17:32:59.085Z,-4.15
2022-12-13T17:36:08.545Z,-4.14
2022-12-13T17:39:12.167Z,-4.08
2022-12-13T17:42:13.904Z,-4.09
2022-12-13T17:45:16.907Z,-4.11
2022-12-13T17:48:18.457Z,-4.14
2022-12-13T17:51:20.007Z,-4.20
2022-12-13T17:54:23.817Z,-4.25
2022-12-13T17:57:25.392Z,-4.32
2022-12-13T18:00:26.972Z,-4.43
2022-12-13T18:03:28.865Z,-4.50
2022-12-13T18:06:31.795Z,-4.58
2022-12-13T18:09:33.446Z,-4.67
2022-12-13T18:12:34.971Z,-4.74
2022-12-13T18:15:37.007Z,-4.81
2022-12-13T18:18:38.780Z,-4.89
2022-12-13T18:21:41.461Z,-4.92
2022-12-13T18:24:42.963Z,-4.95
2022-12-13T18:27:44.654Z,-5.00
2022-12-13T18:30:46.341Z,-5.03
2022-12-13T18:33:49.562Z,-5.05
2022-12-13T18:36:51.313Z,-5.08
2022-12-13T18:39:54.976Z,-5.09
2022-12-13T18:42:57.006Z,-5.11
2022-12-13T18:46:02.705Z,-5.09
2022-12-13T18:49:05.934Z,-5.07
2022-12-13T18:52:07.447Z,-5.04
2022-12-13T18:55:09.565Z,-5.03
2022-12-13T18:58:11.100Z,-5.04
2022-12-13T19:01:13.555Z,-5.05
2022-12-13T19:04:15.148Z,-5.07
2022-12-13T19:07:16.734Z,-5.08
2022-12-13T19:10:18.649Z,-5.09
2022-12-13T19:13:22.856Z,-5.09
2022-12-13T19:16:26.361Z,-5.06
2022-12-13T19:19:27.987Z,-5.05
2022-12-13T19:22:30.239Z,-5.04
2022-12-13T19:25:31.759Z,-5.03
2022-12-13T19:28:34.282Z,-5.03
2022-12-13T19:31:35.985Z,-5.02
2022-12-13T19:34:38.539Z,-5.02
2022-12-13T19:37:40.312Z,-5.01
2022-12-13T19:40:42.604Z,-4.98
2022-12-13T19:43:52.084Z,-4.94
2022-12-13T19:46:56.043Z,-4.91
2022-12-13T19:49:57.773Z,-4.90
2022-12-13T19:52:59.336Z,-4.89
2022-12-13T19:56:00.923Z,-4.90
2022-12-13T19:59:02.531Z,-4.92
2022-12-13T20:02:05.656Z,-4.94
2022-12-13T20:05:07.963Z,-4.96
2022-12-13T20:08:10.200Z,-4.99
2022-12-13T20:11:19.413Z,-4.97
2022-12-13T20:14:21.074Z,-5.01
2022-12-13T20:17:22.601Z,-5.05
2022-12-13T20:20:31.485Z,-5.09
2022-12-13T20:23:38.208Z,-5.18
2022-12-13T20:26:39.797Z,-5.23
2022-12-13T20:29:41.449Z,-5.27
2022-12-13T20:32:50.507Z,-5.29
2022-12-13T20:36:22.653Z,-5.29
2022-12-13T20:39:14.559Z,-5.20
2022-12-13T20:42:16.477Z,-5.20
2022-12-13T20:45:18.011Z,-5.20
2022-12-13T20:48:19.570Z,-5.19
2022-12-13T20:51:23.981Z,-5.14
2022-12-13T20:54:25.631Z,-5.11
2022-12-13T20:57:27.153Z,-5.10
2022-12-13T21:00:28.855Z,-5.08
2022-12-13T21:03:30.584Z,-5.08
2022-12-13T21:06:34.313Z,-5.06
2022-12-13T21:09:35.843Z,-5.00
2022-12-13T21:12:37.440Z,-4.97
2022-12-13T21:15:38.924Z,-4.96
2022-12-13T21:18:40.614Z,-4.95
2022-12-13T21:21:42.924Z,-4.93
2022-12-13T21:24:44.443Z,-4.90
2022-12-13T21:27:45.984Z,-4.89
2022-12-13T21:30:50.067Z,-4.89
2022-12-13T21:33:54.697Z,-4.89
2022-12-13T21:36:56.210Z,-4.90
2022-12-13T21:39:57.810Z,-4.93
2022-12-13T21:42:59.311Z,-4.96
2022-12-13T21:46:01.373Z,-4.98
2022-12-13T21:49:02.918Z,-5.00
2022-12-13T21:52:04.747Z,-5.04
2022-12-13T21:55:30.487Z,-5.07
2022-12-13T21:58:46.676Z,-5.12
2022-12-13T22:02:13.533Z,-5.17
2022-12-13T22:05:15.294Z,-5.22
2022-12-13T22:08:16.887Z,-5.27
2022-12-13T22:11:21.582Z,-5.27
2022-12-13T22:14:23.308Z,-5.26
2022-12-13T22:17:32.985Z,-5.27
2022-12-13T22:20:36.594Z,-5.28
2022-12-13T22:23:38.192Z,-5.28
2022-12-13T22:26:40.192Z,-5.30
2022-12-13T22:29:41.728Z,-5.32
2022-12-13T22:32:43.296Z,-5.36
2022-12-13T22:35:44.808Z,-5.38
2022-12-13T22:38:48.510Z,-5.40
2022-12-13T22:41:51.247Z,-5.40
2022-12-13T22:44:52.843Z,-5.41
2022-12-13T22:47:54.503Z,-5.41
2022-12-13T22:50:56.347Z,-5.41
2022-12-13T22:53:57.892Z,-4.97
2022-12-13T22:56:59.427Z,-4.26
2022-12-13T23:00:00.985Z,-4.15
2022-12-13T23:03:02.565Z,-4.18
2022-12-13T23:06:15.482Z,-4.28
2022-12-13T23:09:17.075Z,-4.41
2022-12-13T23:12:37.306Z,-4.53
2022-12-13T23:15:38.865Z,-4.67
2022-12-13T23:18:40.391Z,-4.79
2022-12-13T23:21:42.652Z,-4.92
2022-12-13T23:24:52.416Z,-5.05
2022-12-13T23:27:53.957Z,-5.16
2022-12-13T23:31:01.010Z,-5.26
2022-12-13T23:34:03.060Z,-5.38
2022-12-13T23:37:04.867Z,-5.48
2022-12-13T23:40:07.138Z,-5.57
2022-12-13T23:43:09.764Z,-5.63
2022-12-13T23:46:14.110Z,-5.69
2022-12-13T23:49:16.413Z,-5.75
2022-12-13T23:52:17.974Z,-5.82
2022-12-13T23:55:19.808Z,-5.88
2022-12-13T23:58:22.447Z,-5.94
